Time;durP1;ratioP1;P1;durP2;ratioP2;P2;SDS_P1;SDS_P2;PMS_P1;PMS_P2;Temp;Humidity;BMP_temperature;BMP_pressure;BME280_temperature;BME280_humidity;BME280_pressure;Samples;Min_cycle;Max_cycle;Signal;HPM_P1;HPM_P2
2024/03/31 00:01:06;;;;;;;23.20;2.77;;;;;;;-145.69;61.89;52103.78;5072821;28;20229;-84
2024/03/31 00:03:35;;;;;;;21.07;3.17;;;;;;;-145.69;62.36;52119.63;5073219;28;20210;-83
2024/03/31 00:06:05;;;;;;;19.30;2.47;;;;;;;-145.69;63.18;52155.25;5052764;28;20215;-83
2024/03/31 00:08:31;;;;;;;14.33;2.67;;;;;;;-145.69;63.89;52135.47;5071005;28;20289;-84
2024/03/31 00:11:01;;;;;;;14.13;2.30;;;;;;;-145.69;64.71;52107.72;5072837;28;20195;-83
2024/03/31 00:13:28;;;;;;;18.47;2.60;;;;;;;-145.69;64.49;52127.53;5073069;28;20195;-84
2024/03/31 00:15:54;;;;;;;17.70;1.93;;;;;;;-145.69;61.76;52121.59;5072396;28;20317;-84
2024/03/31 00:18:21;;;;;;;20.90;2.07;;;;;;;-145.69;61.69;52101.78;5072946;28;20290;-84
2024/03/31 00:20:52;;;;;;;12.83;2.63;;;;;;;-145.69;61.41;52149.31;5072242;28;20225;-84
2024/03/31 00:23:25;;;;;;;18.20;2.20;;;;;;;-145.69;62.02;52123.56;5072749;28;20195;-84
2024/03/31 00:25:56;;;;;;;14.57;2.20;;;;;;;-145.69;61.60;52151.28;5072953;28;20195;-85
2024/03/31 00:28:26;;;;;;;14.40;2.67;;;;;;;-145.69;61.62;52109.72;5072711;28;20558;-84
2024/03/31 00:30:56;;;;;;;21.77;3.07;;;;;;;-145.69;60.46;52113.66;5072593;28;20203;-84
2024/03/31 00:33:23;;;;;;;21.20;2.27;;;;;;;-145.69;60.52;52121.59;5072869;28;20210;-83
2024/03/31 00:36:02;;;;;;;24.03;3.70;;;;;;;-145.69;61.75;52139.41;5072510;28;20215;-84
2024/03/31 00:38:30;;;;;;;24.47;3.77;;;;;;;-145.69;62.53;52107.72;5072493;28;20653;-83
2024/03/31 00:40:56;;;;;;;18.50;2.70;;;;;;;-145.69;62.28;52111.69;5072660;28;20231;-84
2024/03/31 00:43:22;;;;;;;23.73;2.87;;;;;;;-145.69;62.86;52143.38;5069262;28;20553;-84
2024/03/31 00:45:48;;;;;;;17.50;2.57;;;;;;;-145.69;62.80;52151.28;5075482;28;20198;-83
2024/03/31 00:48:15;;;;;;;18.07;3.30;;;;;;;-145.69;62.99;52119.63;5076680;28;20226;-84
2024/03/31 00:50:40;;;;;;;20.30;3.00;;;;;;;-145.69;63.61;52141.41;5076144;28;20191;-83
2024/03/31 00:53:07;;;;;;;24.00;3.23;;;;;;;-145.69;63.67;52149.31;5076567;28;20271;-84
2024/03/31 00:55:34;;;;;;;12.57;2.77;;;;;;;-145.69;64.19;52105.75;5076751;28;20202;-84
2024/03/31 00:58:00;;;;;;;25.33;2.73;;;;;;;-145.69;64.22;52127.53;5076175;28;20210;-83
2024/03/31 01:00:26;;;;;;;13.23;2.80;;;;;;;-145.69;64.60;52105.75;5076190;28;20230;-84
2024/03/31 01:02:53;;;;;;;20.77;3.53;;;;;;;-145.69;65.02;52159.22;5076236;28;20285;-84
2024/03/31 01:05:19;;;;;;;29.83;3.03;;;;;;;-145.69;64.83;52151.28;5076302;28;20225;-83
2024/03/31 01:07:46;;;;;;;17.70;2.43;;;;;;;-145.69;65.10;52133.47;5075802;28;20669;-83
2024/03/31 01:10:11;;;;;;;21.23;2.20;;;;;;;-145.69;64.75;52147.34;5075887;28;20191;-83
2024/03/31 01:12:40;;;;;;;26.13;2.73;;;;;;;-145.69;65.32;52135.47;5056113;28;20203;-84
2024/03/31 01:15:07;;;;;;;25.57;2.90;;;;;;;-145.69;64.97;52087.94;5071226;28;20198;-83
2024/03/31 01:17:33;;;;;;;24.70;2.53;;;;;;;-145.69;65.38;52131.50;5076100;28;20285;-83
2024/03/31 01:20:00;;;;;;;17.83;2.70;;;;;;;-145.69;65.62;52107.72;5075581;28;20223;-83
2024/03/31 01:22:27;;;;;;;12.80;3.53;;;;;;;-145.69;65.83;52135.47;5075687;28;20621;-84
2024/03/31 01:24:54;;;;;;;27.33;3.10;;;;;;;-145.69;66.16;52153.28;5075590;28;20203;-84
2024/03/31 01:27:21;;;;;;;20.03;2.93;;;;;;;-145.69;66.66;52141.41;5075592;28;20285;-83
2024/03/31 01:29:46;;;;;;;14.87;2.10;;;;;;;-145.69;67.11;52135.47;5075539;28;20544;-83
2024/03/31 01:32:13;;;;;;;17.77;2.17;;;;;;;-145.69;67.18;52157.25;5075707;28;20285;-84
2024/03/31 01:34:39;;;;;;;20.73;3.00;;;;;;;-145.69;67.60;52129.50;5075656;28;20716;-84
2024/03/31 01:37:05;;;;;;;18.37;3.23;;;;;;;-145.69;66.91;52165.16;5075577;28;20260;-84
2024/03/31 01:39:31;;;;;;;18.93;2.60;;;;;;;-145.69;66.65;52143.38;5074912;28;20195;-84
2024/03/31 01:41:59;;;;;;;30.30;3.03;;;;;;;-145.69;66.83;52159.22;5075570;28;20289;-84
2024/03/31 01:44:24;;;;;;;14.33;2.83;;;;;;;-145.69;67.17;52121.59;5075203;28;20289;-83
2024/03/31 01:46:53;;;;;;;14.40;2.33;;;;;;;-145.69;67.26;52143.38;5075102;28;20273;-84
2024/03/31 01:49:19;;;;;;;22.73;3.47;;;;;;;-145.69;67.81;52139.41;5075385;28;20202;-83
2024/03/31 01:51:46;;;;;;;20.57;2.97;;;;;;;-145.69;67.55;52111.69;5075640;28;20675;-83
2024/03/31 01:54:11;;;;;;;23.93;2.57;;;;;;;-145.69;68.10;52173.09;5075086;28;20207;-83
2024/03/31 01:56:38;;;;;;;21.63;2.43;;;;;;;-145.69;67.95;52139.41;5074588;28;20204;-83
2024/03/31 01:59:05;;;;;;;15.20;2.23;;;;;;;-145.69;68.17;52163.19;5075512;28;20209;-83
2024/03/31 02:01:31;;;;;;;19.10;3.17;;;;;;;-145.69;67.97;52165.16;5074780;28;20233;-83
2024/03/31 02:03:57;;;;;;;24.17;2.80;;;;;;;-145.69;68.40;52107.72;5075021;28;20207;-83
2024/03/31 02:06:23;;;;;;;13.37;2.73;;;;;;;-145.69;68.96;52171.09;5075378;28;20672;-84
2024/03/31 02:08:49;;;;;;;24.23;2.60;;;;;;;-145.69;68.89;52159.22;5075651;28;20531;-85
2024/03/31 02:11:16;;;;;;;17.13;2.00;;;;;;;-145.69;68.37;52121.59;5074963;28;20214;-83
2024/03/31 02:13:42;;;;;;;28.60;3.60;;;;;;;-145.69;68.92;52161.19;5074940;28;20289;-82
2024/03/31 02:16:09;;;;;;;13.30;2.37;;;;;;;-145.69;69.17;52159.22;5074449;28;20234;-82
2024/03/31 02:18:35;;;;;;;19.00;2.50;;;;;;;-145.69;69.29;52139.41;5074686;28;20281;-82
2024/03/31 02:21:02;;;;;;;23.03;3.23;;;;;;;-145.69;69.85;52143.38;5074747;28;20317;-82
2024/03/31 02:23:28;;;;;;;17.00;2.67;;;;;;;-145.69;69.91;52175.06;5074031;28;20621;-83
2024/03/31 02:25:55;;;;;;;16.57;2.47;;;;;;;-145.69;69.35;52127.53;5074534;28;20222;-82
2024/03/31 02:28:20;;;;;;;18.53;3.87;;;;;;;-145.69;69.92;52175.06;5074585;28;20198;-83
2024/03/31 02:30:47;;;;;;;22.40;3.13;;;;;;;-145.69;70.58;52196.84;5074578;28;20289;-82
2024/03/31 02:33:14;;;;;;;27.13;3.10;;;;;;;-145.69;70.63;52157.25;5066916;28;20204;-82
2024/03/31 02:35:41;;;;;;;17.47;2.93;;;;;;;-145.69;70.90;52147.34;5054546;28;20226;-82
2024/03/31 02:38:06;;;;;;;14.77;2.17;;;;;;;-145.69;70.38;52188.91;5054344;28;20202;-81
2024/03/31 02:40:33;;;;;;;18.40;2.87;;;;;;;-145.69;71.59;52179.03;5067673;28;20692;-82
2024/03/31 02:42:58;;;;;;;12.50;2.30;;;;;;;-145.69;71.70;52167.13;5074427;28;20206;-82
2024/03/31 02:45:25;;;;;;;18.63;2.97;;;;;;;-145.69;71.38;52177.03;5074303;28;20655;-81
2024/03/31 02:47:50;;;;;;;23.63;2.80;;;;;;;-145.69;71.54;52149.31;5070233;28;20198;-82
2024/03/31 02:50:18;;;;;;;22.53;2.63;;;;;;;-145.69;71.36;52175.06;5056198;28;20200;-82
2024/03/31 02:52:44;;;;;;;19.97;2.60;;;;;;;-145.69;71.03;52186.94;5054098;28;20567;-82
2024/03/31 02:55:10;;;;;;;19.77;2.53;;;;;;;-145.69;71.22;52161.19;5054421;28;20208;-82
2024/03/31 02:57:36;;;;;;;18.43;2.63;;;;;;;-145.69;71.62;52190.91;5063098;28;20277;-83
2024/03/31 03:00:03;;;;;;;13.37;1.93;;;;;;;-145.69;72.47;52157.25;5074108;28;20737;-82
2024/03/31 03:02:28;;;;;;;30.10;3.30;;;;;;;-145.69;72.63;52157.25;5073935;28;20190;-82
2024/03/31 03:04:55;;;;;;;13.73;3.17;;;;;;;-145.69;71.87;52167.13;5073945;28;20252;-82
2024/03/31 03:07:22;;;;;;;20.00;2.83;;;;;;;-145.69;71.91;52163.19;5072697;28;20199;-82
2024/03/31 03:09:49;;;;;;;32.13;3.07;;;;;;;-145.69;72.81;52151.28;5073327;28;20214;-82
2024/03/31 03:12:15;;;;;;;18.27;2.40;;;;;;;-145.69;72.24;52169.13;5073767;28;20272;-82
2024/03/31 03:14:41;;;;;;;19.43;3.00;;;;;;;-145.69;72.05;52151.28;5073599;28;20202;-83
2024/03/31 03:17:07;;;;;;;11.63;2.43;;;;;;;-145.69;72.44;52190.91;5073358;28;20235;-83
2024/03/31 03:19:34;;;;;;;26.93;3.53;;;;;;;-145.69;72.47;52177.03;5073343;28;20558;-82
2024/03/31 03:21:59;;;;;;;23.67;2.67;;;;;;;-145.69;71.92;52188.91;5073497;28;20226;-82
2024/03/31 03:24:27;;;;;;;18.57;2.40;;;;;;;-145.69;72.09;52163.19;5073352;28;20578;-82
2024/03/31 03:26:53;;;;;;;19.10;2.70;;;;;;;-145.69;71.63;52171.09;5073412;28;20198;-83
2024/03/31 03:29:19;;;;;;;18.13;3.10;;;;;;;-145.69;72.41;52175.06;5073653;28;20209;-83
2024/03/31 03:31:46;;;;;;;25.07;2.87;;;;;;;-145.69;73.49;52165.16;5073309;28;20205;-83
2024/03/31 03:34:13;;;;;;;16.67;2.40;;;;;;;-145.69;72.81;52192.88;5073555;28;20569;-82
2024/03/31 03:36:38;;;;;;;9.93;2.20;;;;;;;-145.69;72.61;52169.13;5072662;28;20601;-82
2024/03/31 03:39:05;;;;;;;19.80;2.40;;;;;;;-145.69;72.65;52186.94;5073515;28;20207;-82
2024/03/31 03:41:33;;;;;;;18.03;2.20;;;;;;;-145.69;73.65;52192.88;5072850;28;20234;-83
2024/03/31 03:43:59;;;;;;;12.33;2.63;;;;;;;-145.69;72.80;52169.13;5073095;28;20203;-83
2024/03/31 03:46:25;;;;;;;16.10;3.30;;;;;;;-145.69;72.55;52190.91;5053187;28;20203;-83
2024/03/31 03:48:51;;;;;;;14.30;2.07;;;;;;;-145.69;72.12;52214.66;5053372;28;20305;-83
2024/03/31 03:51:17;;;;;;;13.07;1.90;;;;;;;-145.69;71.96;52190.91;5052834;28;20207;-82
2024/03/31 03:53:43;;;;;;;15.37;3.63;;;;;;;-145.69;73.32;52202.78;5053969;28;20203;-82
2024/03/31 03:56:09;;;;;;;21.60;3.13;;;;;;;-145.69;73.52;52179.03;5073056;28;20248;-82
2024/03/31 03:58:37;;;;;;;11.37;2.70;;;;;;;-145.69;73.29;52179.03;5073169;28;20210;-82
2024/03/31 04:01:03;;;;;;;19.27;2.93;;;;;;;-145.69;72.08;52184.97;5072935;28;20230;-81
2024/03/31 04:03:29;;;;;;;14.87;2.63;;;;;;;-145.69;72.65;52186.94;5072923;28;20202;-82
2024/03/31 04:05:55;;;;;;;23.13;2.47;;;;;;;-145.69;72.72;52167.13;5072326;28;20202;-82
2024/03/31 04:08:22;;;;;;;21.93;2.53;;;;;;;-145.69;72.67;52186.94;5072938;28;20201;-82
2024/03/31 04:10:48;;;;;;;16.20;2.40;;;;;;;-145.69;72.36;52175.06;5072524;28;20214;-81
2024/03/31 04:13:15;;;;;;;12.70;2.10;;;;;;;-145.69;72.79;52155.25;5072348;28;20203;-81
2024/03/31 04:15:42;;;;;;;12.77;2.10;;;;;;;-145.69;73.25;52194.88;5072492;28;20323;-82
2024/03/31 04:18:09;;;;;;;14.27;2.40;;;;;;;-145.69;72.91;52188.91;5072462;28;20256;-81
2024/03/31 04:20:39;;;;;;;20.93;2.73;;;;;;;-145.69;73.14;52188.91;5072718;28;20235;-81
2024/03/31 04:23:06;;;;;;;17.00;2.20;;;;;;;-145.69;72.56;52196.84;5073009;28;20195;-81
2024/03/31 04:25:32;;;;;;;22.80;2.40;;;;;;;-145.69;72.97;52186.94;5072800;28;20211;-81
2024/03/31 04:27:58;;;;;;;16.87;3.00;;;;;;;-145.69;73.62;52198.81;5072809;28;20210;-81
2024/03/31 04:30:24;;;;;;;17.63;2.83;;;;;;;-145.69;74.20;52186.94;5072281;28;20205;-81
2024/03/31 04:32:52;;;;;;;21.60;3.00;;;;;;;-145.69;74.29;52208.72;5072575;28;20206;-82
2024/03/31 04:35:17;;;;;;;13.00;2.03;;;;;;;-145.69;74.10;52163.19;5072267;28;20202;-82
2024/03/31 04:37:48;;;;;;;15.67;2.83;;;;;;;-145.69;74.34;52214.66;5072663;28;20673;-82
2024/03/31 04:40:15;;;;;;;10.77;2.20;;;;;;;-145.69;74.61;52190.91;5071906;28;20284;-82
2024/03/31 04:42:40;;;;;;;21.43;2.37;;;;;;;-145.69;74.17;52218.63;5072498;28;20547;-82
2024/03/31 04:45:07;;;;;;;21.47;2.70;;;;;;;-145.69;74.49;52171.09;5072288;28;20205;-81
2024/03/31 04:47:33;;;;;;;22.80;2.57;;;;;;;-145.69;74.26;52210.72;5072291;28;20198;-81
2024/03/31 04:50:01;;;;;;;17.70;2.20;;;;;;;-145.69;74.76;52188.91;5069162;28;20201;-81
2024/03/31 04:52:26;;;;;;;21.93;3.00;;;;;;;-145.69;75.23;52224.56;5072601;28;20209;-82
2024/03/31 04:54:54;;;;;;;27.17;2.57;;;;;;;-145.69;74.96;52159.22;5072548;28;20194;-83
2024/03/31 04:57:22;;;;;;;13.00;2.47;;;;;;;-145.69;74.58;52188.91;5072259;28;20207;-83
2024/03/31 04:59:48;;;;;;;24.80;2.43;;;;;;;-145.69;73.89;52194.88;5072104;28;20207;-82
2024/03/31 05:02:14;;;;;;;21.20;2.83;;;;;;;-145.69;73.94;52179.03;5072259;28;20701;-82
2024/03/31 05:04:41;;;;;;;16.40;2.77;;;;;;;-145.69;72.97;52159.22;5071881;28;20199;-82
2024/03/31 05:07:07;;;;;;;19.63;2.50;;;;;;;-145.69;72.70;52177.03;5072146;28;20227;-83
2024/03/31 05:09:34;;;;;;;18.40;2.10;;;;;;;-145.69;73.13;52179.03;5072393;28;20263;-82
2024/03/31 05:11:59;;;;;;;14.93;2.40;;;;;;;-145.69;73.42;52153.28;5052033;28;20230;-83
2024/03/31 05:14:26;;;;;;;17.17;2.67;;;;;;;-145.69;73.57;52194.88;5063943;28;20661;-82
2024/03/31 05:16:52;;;;;;;25.00;2.63;;;;;;;-145.69;73.03;52188.91;5072097;28;20237;-83
2024/03/31 05:19:18;;;;;;;23.07;2.23;;;;;;;-145.69;72.49;52155.25;5071848;28;20633;-82
2024/03/31 05:21:44;;;;;;;20.00;2.63;;;;;;;-145.69;72.76;52167.13;5072164;28;20226;-82
2024/03/31 05:24:11;;;;;;;18.90;2.93;;;;;;;-145.69;73.42;52155.25;5072025;28;20289;-81
2024/03/31 05:26:37;;;;;;;22.03;3.43;;;;;;;-145.69;73.24;52202.78;5071975;28;20199;-82
2024/03/31 05:29:03;;;;;;;14.17;2.17;;;;;;;-145.69;73.31;52186.94;5071844;28;20206;-82
2024/03/31 05:31:29;;;;;;;14.13;2.23;;;;;;;-145.69;73.50;52204.75;5074805;28;20205;-82
2024/03/31 05:33:55;;;;;;;12.77;2.40;;;;;;;-145.69;73.40;52202.78;5074958;28;20662;-83
2024/03/31 05:36:21;;;;;;;25.77;3.73;;;;;;;-145.69;73.47;52179.03;5075552;28;20658;-82
2024/03/31 05:38:48;;;;;;;20.23;2.10;;;;;;;-145.69;73.47;52177.03;5075348;28;20241;-83
2024/03/31 05:41:14;;;;;;;19.70;1.90;;;;;;;-145.69;73.28;52159.22;5075334;28;20641;-82
2024/03/31 05:43:41;;;;;;;15.57;2.20;;;;;;;-145.69;73.16;52167.13;5075469;28;20203;-82
2024/03/31 05:46:07;;;;;;;16.17;2.70;;;;;;;-145.69;72.93;52198.81;5075110;28;20669;-82
2024/03/31 05:48:33;;;;;;;11.83;1.83;;;;;;;-145.69;73.19;52186.94;5075546;28;20203;-82
2024/03/31 05:50:59;;;;;;;20.30;2.60;;;;;;;-145.69;72.71;52155.25;5075033;28;20205;-82
2024/03/31 05:53:25;;;;;;;26.30;3.40;;;;;;;-145.69;73.04;52188.91;5075380;28;20195;-83
2024/03/31 05:55:51;;;;;;;20.70;2.97;;;;;;;-145.69;72.47;52167.13;5075234;28;20198;-83
2024/03/31 05:58:19;;;;;;;13.77;2.40;;;;;;;-145.69;72.66;52210.72;5074834;28;20558;-83
2024/03/31 06:00:45;;;;;;;23.97;2.63;;;;;;;-145.69;71.98;52175.06;5075061;28;20225;-83
2024/03/31 06:03:11;;;;;;;12.20;2.33;;;;;;;-145.69;72.36;52181.00;5075045;28;20191;-84
2024/03/31 06:05:37;;;;;;;13.23;2.57;;;;;;;-145.69;72.49;52202.78;5075038;28;20213;-84
2024/03/31 06:08:04;;;;;;;23.10;2.40;;;;;;;-145.69;72.29;52190.91;5075280;28;20199;-83
2024/03/31 06:10:29;;;;;;;15.43;2.40;;;;;;;-145.69;71.59;52169.13;5075277;28;20198;-83
2024/03/31 06:12:56;;;;;;;19.27;2.40;;;;;;;-145.69;71.26;52182.97;5074498;28;20725;-84
2024/03/31 06:15:23;;;;;;;16.43;3.20;;;;;;;-145.69;71.88;52196.84;5074956;28;20593;-84
2024/03/31 06:17:49;;;;;;;26.53;2.70;;;;;;;-145.69;71.45;52175.06;5075334;28;20230;-84
2024/03/31 06:20:15;;;;;;;20.00;3.03;;;;;;;-145.69;71.86;52194.88;5074874;28;20205;-83
2024/03/31 06:22:43;;;;;;;18.47;2.87;;;;;;;-145.69;71.80;52190.91;5074813;28;20203;-84
2024/03/31 06:25:09;;;;;;;29.63;3.50;;;;;;;-145.69;72.14;52181.00;5074753;28;20195;-83
2024/03/31 06:27:35;;;;;;;18.83;2.93;;;;;;;-145.69;71.51;52179.03;5074849;28;20209;-84
2024/03/31 06:30:04;;;;;;;22.80;3.37;;;;;;;-145.69;71.89;52175.06;5074744;28;20688;-84
2024/03/31 06:32:32;;;;;;;14.47;2.33;;;;;;;-145.69;71.60;52157.25;5074997;28;20198;-83
2024/03/31 06:34:57;;;;;;;16.97;2.53;;;;;;;-145.69;71.96;52190.91;5074690;28;20195;-83
2024/03/31 06:37:24;;;;;;;29.30;2.70;;;;;;;-145.69;71.96;52171.09;5074608;28;20286;-83
2024/03/31 06:39:50;;;;;;;17.10;3.00;;;;;;;-145.69;71.87;52181.00;5074344;28;20199;-87
2024/03/31 06:42:17;;;;;;;17.60;2.87;;;;;;;-145.69;72.41;52167.13;5074988;28;20580;-86
2024/03/31 06:44:42;;;;;;;17.03;2.30;;;;;;;-145.69;72.35;52184.97;5075155;28;20221;-85
2024/03/31 06:47:09;;;;;;;12.77;2.60;;;;;;;-145.69;72.12;52175.06;5074974;28;20729;-86
2024/03/31 06:49:36;;;;;;;21.43;3.20;;;;;;;-145.69;71.54;52167.13;5075023;28;20230;-84
2024/03/31 06:52:03;;;;;;;17.40;3.10;;;;;;;-145.69;69.95;52173.09;5075319;28;20230;-84
2024/03/31 06:54:28;;;;;;;20.23;3.50;;;;;;;-145.69;69.80;52173.09;5074058;28;20260;-85
2024/03/31 06:56:55;;;;;;;18.00;3.40;;;;;;;-145.69;71.07;52151.28;5058136;28;20200;-86
2024/03/31 06:59:20;;;;;;;23.93;3.63;;;;;;;-145.69;70.31;52147.34;5055974;28;20209;-86
2024/03/31 07:01:47;;;;;;;35.13;4.83;;;;;;;-145.69;69.66;52175.06;5071474;28;20231;-86
2024/03/31 07:04:13;;;;;;;19.90;3.20;;;;;;;-145.69;70.07;52171.09;5073727;28;20249;-86
2024/03/31 07:06:41;;;;;;;22.00;3.20;;;;;;;-145.69;70.08;52173.09;5074468;28;20248;-85
2024/03/31 07:09:07;;;;;;;18.53;2.77;;;;;;;-145.69;69.67;52147.34;5074209;28;20665;-85
2024/03/31 07:11:33;;;;;;;23.23;2.43;;;;;;;-145.69;68.73;52163.19;5075079;28;20241;-86
2024/03/31 07:13:59;;;;;;;16.40;2.50;;;;;;;-145.69;68.77;52159.22;5075174;28;20218;-85
2024/03/31 07:16:26;;;;;;;17.17;2.33;;;;;;;-145.69;68.26;52147.34;5074748;28;20693;-85
2024/03/31 07:18:51;;;;;;;26.53;3.23;;;;;;;-145.69;67.42;52159.22;5075249;28;20198;-85
2024/03/31 07:21:18;;;;;;;14.63;2.23;;;;;;;-145.69;67.78;52145.34;5074380;28;20237;-86
2024/03/31 07:23:45;;;;;;;20.33;3.00;;;;;;;-145.69;67.38;52107.72;5074273;28;20203;-85
2024/03/31 07:26:12;;;;;;;13.27;2.43;;;;;;;-145.69;66.12;52157.25;5074045;28;20245;-85
2024/03/31 07:28:37;;;;;;;23.20;3.30;;;;;;;-145.69;65.62;52163.19;5074679;28;20206;-87
2024/03/31 07:31:04;;;;;;;18.93;3.10;;;;;;;-145.69;65.54;52139.41;5081394;28;20561;-87
2024/03/31 07:33:29;;;;;;;25.57;3.17;;;;;;;-145.69;64.97;52133.47;5080672;28;20280;-86
2024/03/31 07:35:56;;;;;;;23.63;2.60;;;;;;;-145.69;62.83;52145.34;5079357;28;20238;-85
2024/03/31 07:38:21;;;;;;;30.40;3.40;;;;;;;-145.69;62.44;52151.28;5077941;28;20213;-87
2024/03/31 07:40:49;;;;;;;11.17;2.53;;;;;;;-145.69;63.36;52105.75;5078079;28;20207;-85
2024/03/31 07:43:20;;;;;;;19.07;3.57;;;;;;;-145.69;62.26;52123.56;5056140;28;20207;-86
2024/03/31 07:45:47;;;;;;;19.50;3.23;;;;;;;-145.69;60.34;52127.53;5073315;28;20211;-84
2024/03/31 07:48:12;;;;;;;16.07;2.30;;;;;;;-145.69;57.64;52137.44;5073861;28;20198;-85
2024/03/31 07:50:40;;;;;;;15.50;1.70;;;;;;;-145.69;57.46;52139.41;5073205;28;20203;-82
2024/03/31 07:53:05;;;;;;;11.47;2.50;;;;;;;-145.69;56.94;52115.66;5071991;28;20646;-82
2024/03/31 07:55:32;;;;;;;23.38;2.55;;;;;;;-145.69;55.56;52113.66;5072564;28;20199;-82
2024/03/31 07:57:59;;;;;;;8.40;1.80;;;;;;;-145.69;53.49;52133.47;5072556;28;20213;-82
2024/03/31 08:00:25;;;;;;;23.27;3.08;;;;;;;-145.69;54.95;52115.66;5072940;28;20237;-84
2024/03/31 08:02:51;;;;;;;24.02;2.97;;;;;;;-145.69;55.68;52115.66;5071972;28;20218;-84
2024/03/31 08:05:18;;;;;;;11.80;2.13;;;;;;;-145.69;52.69;52089.91;5072259;28;20655;-83
2024/03/31 08:07:44;;;;;;;16.23;2.75;;;;;;;-145.69;52.25;52111.69;5072589;28;20207;-84
2024/03/31 08:10:10;;;;;;;15.60;3.33;;;;;;;-145.69;52.97;52109.72;5072788;28;20648;-83
2024/03/31 08:12:36;;;;;;;21.67;2.92;;;;;;;-145.69;52.61;52105.75;5072384;28;20199;-83
2024/03/31 08:15:04;;;;;;;10.07;2.03;;;;;;;-145.69;48.04;52109.72;5072039;28;20240;-83
2024/03/31 08:17:30;;;;;;;19.63;2.83;;;;;;;-145.69;49.48;52044.38;5072626;28;20215;-83
2024/03/31 08:19:57;;;;;;;12.65;2.10;;;;;;;-145.69;48.13;52052.28;5072493;28;20213;-84
2024/03/31 08:22:22;;;;;;;33.53;3.42;;;;;;;-145.69;48.79;52056.25;5072101;28;20219;-83
2024/03/31 08:24:49;;;;;;;17.00;2.63;;;;;;;-145.69;48.42;52044.38;5072551;28;20630;-82
2024/03/31 08:27:18;;;;;;;20.85;3.42;;;;;;;-145.69;49.78;52064.16;5072469;28;20362;-83
2024/03/31 08:29:44;;;;;;;17.35;2.60;;;;;;;-145.69;50.30;52103.78;5072617;28;20288;-83
2024/03/31 08:32:11;;;;;;;16.50;2.97;;;;;;;-145.69;49.88;52040.41;5072207;28;20206;-83
2024/03/31 08:34:38;;;;;;;19.45;2.70;;;;;;;-145.69;49.86;52085.94;5072169;28;20226;-83
2024/03/31 08:37:03;;;;;;;21.98;3.10;;;;;;;-145.69;48.28;52036.44;5072510;28;20592;-83
2024/03/31 08:39:30;;;;;;;21.48;2.92;;;;;;;-145.69;49.35;52056.25;5072134;28;20198;-83
2024/03/31 08:42:01;;;;;;;29.10;3.72;;;;;;;-145.69;48.25;52024.56;5071722;28;20228;-83
2024/03/31 08:44:29;;;;;;;20.33;2.70;;;;;;;-145.69;47.96;52022.59;5073049;28;20217;-84
2024/03/31 08:46:56;;;;;;;19.92;2.55;;;;;;;-145.69;47.41;52064.16;5072057;28;20200;-83
2024/03/31 08:49:24;;;;;;;23.42;2.75;;;;;;;-145.69;46.45;52028.53;5072452;28;20203;-83
2024/03/31 08:51:50;;;;;;;27.05;3.33;;;;;;;-145.69;47.48;52024.56;5071983;28;20203;-83
2024/03/31 08:54:16;;;;;;;18.13;2.63;;;;;;;-145.69;47.77;52030.50;5072242;28;20658;-84
2024/03/31 08:56:42;;;;;;;16.52;2.90;;;;;;;-145.69;47.01;52038.44;5071928;28;20199;-83
2024/03/31 08:59:09;;;;;;;18.33;2.50;;;;;;;-145.69;46.73;52044.38;5072237;28;20203;-84
2024/03/31 09:01:34;;;;;;;14.95;2.22;;;;;;;-145.69;45.27;52008.72;5072042;28;20222;-83
2024/03/31 09:04:02;;;;;;;19.95;2.55;;;;;;;-145.69;45.47;52016.66;5071509;28;20289;-83
2024/03/31 09:06:29;;;;;;;24.92;3.08;;;;;;;-145.69;45.68;52008.72;5072108;28;20202;-83
2024/03/31 09:08:56;;;;;;;13.93;2.28;;;;;;;-145.69;43.43;52036.44;5075947;28;20207;-83
2024/03/31 09:11:21;;;;;;;20.42;2.45;;;;;;;-145.69;42.97;52040.41;5075840;28;20199;-83
2024/03/31 09:13:48;;;;;;;23.17;2.80;;;;;;;-145.69;42.55;52014.66;5075660;28;20728;-83
2024/03/31 09:16:14;;;;;;;17.20;1.98;;;;;;;-145.69;42.56;52020.59;5075512;28;20638;-82
2024/03/31 09:18:40;;;;;;;11.75;1.70;;;;;;;-145.69;41.51;52032.47;5075752;28;20294;-82
2024/03/31 09:21:07;;;;;;;11.70;1.40;;;;;;;-145.69;41.03;52014.66;5075726;28;20210;-82
2024/03/31 09:23:37;;;;;;;14.73;1.73;;;;;;;-145.69;41.06;52022.59;5075799;28;20215;-82
2024/03/31 09:26:03;;;;;;;13.50;2.10;;;;;;;-145.69;40.12;51963.19;5075218;28;20669;-81
2024/03/31 09:28:30;;;;;;;10.05;1.35;;;;;;;-145.69;39.50;52018.63;5075283;28;20652;-81
2024/03/31 09:30:55;;;;;;;19.77;1.65;;;;;;;-145.69;39.69;52024.56;5075424;28;20673;-82
2024/03/31 09:33:22;;;;;;;18.45;1.92;;;;;;;-145.69;39.02;52022.59;5074889;28;20209;-81
2024/03/31 09:35:50;;;;;;;14.88;1.73;;;;;;;-145.69;38.57;52008.72;5075679;28;20207;-81
2024/03/31 09:38:16;;;;;;;9.15;1.67;;;;;;;-145.69;38.84;52020.59;5075337;28;20199;-81
2024/03/31 09:40:44;;;;;;;11.30;1.25;;;;;;;-145.69;39.01;52016.66;5075381;28;20560;-81
2024/03/31 09:43:10;;;;;;;13.70;1.38;;;;;;;-145.69;38.21;52004.75;5075250;28;20230;-82
2024/03/31 09:45:41;;;;;;;9.02;0.98;;;;;;;-145.69;37.96;51977.03;5075174;28;20256;-83
2024/03/31 09:48:10;;;;;;;6.55;1.13;;;;;;;-145.69;38.17;51988.91;5074801;28;20195;-82
2024/03/31 09:50:41;;;;;;;15.05;1.65;;;;;;;-145.69;38.17;51988.91;5074792;28;20225;-81
2024/03/31 09:53:09;;;;;;;7.68;1.40;;;;;;;-145.69;38.37;51984.97;5075598;28;20207;-82
2024/03/31 09:55:42;;;;;;;4.88;1.10;;;;;;;-145.69;38.29;51979.03;5075981;28;20234;-82
2024/03/31 09:58:13;;;;;;;8.50;1.30;;;;;;;-145.69;37.24;51961.19;5075505;28;20620;-83
2024/03/31 10:00:40;;;;;;;7.35;1.33;;;;;;;-145.69;37.13;51996.84;5075226;28;20637;-83
2024/03/31 10:03:12;;;;;;;7.93;1.20;;;;;;;-145.69;37.19;51959.22;5074750;28;20226;-83
2024/03/31 10:05:40;;;;;;;7.95;1.40;;;;;;;-145.69;36.60;51984.97;5074394;28;20645;-83
2024/03/31 10:08:09;;;;;;;7.07;1.30;;;;;;;-145.69;35.88;51969.13;5074566;28;20213;-83
2024/03/31 10:10:36;;;;;;;6.20;1.40;;;;;;;-145.69;36.32;51951.28;5075074;28;20681;-83
2024/03/31 10:13:05;;;;;;;7.00;1.40;;;;;;;-145.69;35.12;51959.22;5075087;28;20202;-83
2024/03/31 10:15:33;;;;;;;10.48;1.08;;;;;;;-145.69;33.52;51951.28;5074261;28;20237;-83
2024/03/31 10:18:02;;;;;;;8.30;1.73;;;;;;;-145.69;34.06;51953.28;5074407;28;20222;-83
2024/03/31 10:20:29;;;;;;;12.23;1.60;;;;;;;-145.69;34.08;51949.31;5074244;28;20207;-82
2024/03/31 10:22:59;;;;;;;8.00;1.13;;;;;;;-145.69;34.44;51937.44;5073918;28;20313;-83
2024/03/31 10:25:27;;;;;;;11.38;0.98;;;;;;;-145.69;35.26;51951.28;5074234;28;20209;-83
2024/03/31 10:27:56;;;;;;;6.97;1.30;;;;;;;-145.69;33.45;51937.44;5074508;28;20561;-82
2024/03/31 10:30:27;;;;;;;14.35;1.55;;;;;;;-145.69;33.19;51939.41;5074408;28;20202;-83
2024/03/31 10:32:55;;;;;;;9.65;1.42;;;;;;;-145.69;34.48;51949.31;5074270;28;20299;-83
2024/03/31 10:35:23;;;;;;;8.88;1.50;;;;;;;-145.69;34.58;51931.50;5073999;28;20207;-83
2024/03/31 10:37:51;;;;;;;10.68;1.60;;;;;;;-145.69;34.53;51935.47;5074003;28;20650;-83
2024/03/31 10:40:19;;;;;;;5.85;1.00;;;;;;;-145.69;35.42;51937.44;5074510;28;20218;-82
2024/03/31 10:42:48;;;;;;;9.88;1.60;;;;;;;-145.69;35.54;51941.41;5074049;28;20254;-82
2024/03/31 10:45:16;;;;;;;11.60;1.60;;;;;;;-145.69;34.78;51937.44;5074357;28;20203;-82
2024/03/31 10:47:44;;;;;;;12.63;1.38;;;;;;;-145.69;36.07;51953.28;5073914;28;20212;-83
2024/03/31 10:50:12;;;;;;;10.60;1.48;;;;;;;-145.69;35.76;51969.13;5073959;28;20203;-82
2024/03/31 10:52:39;;;;;;;12.85;1.65;;;;;;;-145.69;35.80;51963.19;5073477;28;20199;-82
2024/03/31 10:55:06;;;;;;;14.90;2.08;;;;;;;-145.69;35.92;51951.28;5074164;28;20203;-81
2024/03/31 10:57:37;;;;;;;13.32;1.67;;;;;;;-145.69;35.87;51988.91;5073966;28;20205;-82
2024/03/31 11:00:05;;;;;;;7.90;1.50;;;;;;;-145.69;34.85;51933.47;5074000;28;20199;-82
2024/03/31 11:02:35;;;;;;;11.10;1.52;;;;;;;-145.69;35.40;51941.41;5069002;28;20696;-82
2024/03/31 11:05:06;;;;;;;12.15;2.42;;;;;;;-145.69;34.23;51949.31;5062511;28;20290;-82
2024/03/31 11:07:36;;;;;;;7.53;1.67;;;;;;;-145.69;34.73;51925.56;5069112;28;20198;-82